sensor_id;sensor_type;location;lat;lon;timestamp;pressure;altitude;pressure_sealevel;temperature;humidity
59106;BME280;44891;50.204;8.132;2023-05-21T00:02:59;98171.38;;;14.41;91.43
59106;BME280;44891;50.204;8.132;2023-05-21T00:07:01;98173.47;;;14.29;91.50
59106;BME280;44891;50.204;8.132;2023-05-21T00:11:03;98166.84;;;14.11;93.12
59106;BME280;44891;50.204;8.132;2023-05-21T00:15:05;98168.16;;;14.19;93.28
59106;BME280;44891;50.204;8.132;2023-05-21T00:19:08;98167.34;;;13.98;94.05
59106;BME280;44891;50.204;8.132;2023-05-21T00:23:10;98172.63;;;14.03;93.86
59106;BME280;44891;50.204;8.132;2023-05-21T00:27:12;98158.91;;;14.01;93.89
59106;BME280;44891;50.204;8.132;2023-05-21T00:31:14;98164.41;;;13.90;94.76
59106;BME280;44891;50.204;8.132;2023-05-21T00:35:18;98156.28;;;14.06;93.47
59106;BME280;44891;50.204;8.132;2023-05-21T00:39:20;98155.72;;;13.99;92.88
59106;BME280;44891;50.204;8.132;2023-05-21T00:43:22;98148.06;;;13.98;92.48
59106;BME280;44891;50.204;8.132;2023-05-21T00:47:25;98143.00;;;13.76;93.68
59106;BME280;44891;50.204;8.132;2023-05-21T00:51:30;98146.69;;;13.80;93.85
59106;BME280;44891;50.204;8.132;2023-05-21T00:55:32;98136.13;;;13.70;94.01
59106;BME280;44891;50.204;8.132;2023-05-21T00:59:34;98120.75;;;13.51;94.62
59106;BME280;44891;50.204;8.132;2023-05-21T01:03:36;98134.25;;;13.65;94.34
59106;BME280;44891;50.204;8.132;2023-05-21T01:07:40;98127.38;;;13.59;94.41
59106;BME280;44891;50.204;8.132;2023-05-21T01:11:42;98129.69;;;13.40;96.18
59106;BME280;44891;50.204;8.132;2023-05-21T01:15:45;98117.00;;;13.32;96.73
59106;BME280;44891;50.204;8.132;2023-05-21T01:19:48;98127.59;;;13.42;96.33
59106;BME280;44891;50.204;8.132;2023-05-21T01:23:53;98125.50;;;13.49;96.14
59106;BME280;44891;50.204;8.132;2023-05-21T01:27:55;98116.53;;;13.50;95.47
59106;BME280;44891;50.204;8.132;2023-05-21T01:31:58;98119.72;;;13.57;94.23
59106;BME280;44891;50.204;8.132;2023-05-21T01:36:08;98113.66;;;13.57;94.42
59106;BME280;44891;50.204;8.132;2023-05-21T01:40:15;98107.78;;;13.35;96.29
59106;BME280;44891;50.204;8.132;2023-05-21T01:44:18;98109.25;;;13.15;97.73
59106;BME280;44891;50.204;8.132;2023-05-21T01:48:21;98108.03;;;13.28;97.06
59106;BME280;44891;50.204;8.132;2023-05-21T01:52:24;98108.47;;;13.20;96.95
59106;BME280;44891;50.204;8.132;2023-05-21T01:56:27;98116.38;;;13.15;97.41
59106;BME280;44891;50.204;8.132;2023-05-21T02:00:29;98111.69;;;13.27;96.44
59106;BME280;44891;50.204;8.132;2023-05-21T02:04:32;98104.03;;;13.25;96.30
59106;BME280;44891;50.204;8.132;2023-05-21T02:08:34;98112.16;;;13.19;96.32
59106;BME280;44891;50.204;8.132;2023-05-21T02:12:37;98100.28;;;13.16;96.85
59106;BME280;44891;50.204;8.132;2023-05-21T02:16:39;98100.50;;;13.04;98.20
59106;BME280;44891;50.204;8.132;2023-05-21T02:20:41;98104.47;;;13.12;97.76
59106;BME280;44891;50.204;8.132;2023-05-21T02:24:43;98101.81;;;13.07;97.74
59106;BME280;44891;50.204;8.132;2023-05-21T02:28:46;98088.94;;;13.11;97.00
59106;BME280;44891;50.204;8.132;2023-05-21T02:32:48;98090.53;;;13.17;96.36
59106;BME280;44891;50.204;8.132;2023-05-21T02:36:50;98095.53;;;13.13;96.56
59106;BME280;44891;50.204;8.132;2023-05-21T02:40:52;98089.38;;;12.92;97.59
59106;BME280;44891;50.204;8.132;2023-05-21T02:44:56;98090.13;;;12.83;98.53
59106;BME280;44891;50.204;8.132;2023-05-21T02:48:58;98095.41;;;12.88;98.93
59106;BME280;44891;50.204;8.132;2023-05-21T02:53:00;98091.50;;;13.00;97.31
59106;BME280;44891;50.204;8.132;2023-05-21T02:57:03;98090.72;;;13.00;97.16
59106;BME280;44891;50.204;8.132;2023-05-21T03:01:06;98095.41;;;12.88;98.10
59106;BME280;44891;50.204;8.132;2023-05-21T03:05:08;98094.28;;;12.78;98.94
59106;BME280;44891;50.204;8.132;2023-05-21T03:09:09;98095.56;;;12.71;99.70
59106;BME280;44891;50.204;8.132;2023-05-21T03:13:11;98089.09;;;12.89;98.29
59106;BME280;44891;50.204;8.132;2023-05-21T03:17:14;98089.41;;;12.97;97.60
59106;BME280;44891;50.204;8.132;2023-05-21T03:21:16;98086.22;;;12.95;97.96
59106;BME280;44891;50.204;8.132;2023-05-21T03:25:22;98084.69;;;12.57;100.00
59106;BME280;44891;50.204;8.132;2023-05-21T03:29:25;98078.19;;;12.70;100.00
59106;BME280;44891;50.204;8.132;2023-05-21T03:33:28;98077.16;;;12.76;99.62
59106;BME280;44891;50.204;8.132;2023-05-21T03:37:30;98088.28;;;12.83;98.16
59106;BME280;44891;50.204;8.132;2023-05-21T03:41:32;98088.78;;;12.85;97.61
59106;BME280;44891;50.204;8.132;2023-05-21T03:45:41;98087.22;;;12.84;98.17
59106;BME280;44891;50.204;8.132;2023-05-21T03:50:03;98081.78;;;12.59;99.56
59106;BME280;44891;50.204;8.132;2023-05-21T03:54:05;98084.00;;;12.77;98.90
59106;BME280;44891;50.204;8.132;2023-05-21T03:58:10;98081.91;;;12.79;98.39
59106;BME280;44891;50.204;8.132;2023-05-21T04:02:12;98081.34;;;12.72;99.34
59106;BME280;44891;50.204;8.132;2023-05-21T04:06:15;98082.97;;;12.78;98.81
59106;BME280;44891;50.204;8.132;2023-05-21T04:10:17;98082.69;;;12.74;99.13
59106;BME280;44891;50.204;8.132;2023-05-21T04:14:19;98080.28;;;12.68;99.83
59106;BME280;44891;50.204;8.132;2023-05-21T04:18:21;98090.78;;;12.63;100.00
59106;BME280;44891;50.204;8.132;2023-05-21T04:22:27;98091.84;;;12.62;100.00
59106;BME280;44891;50.204;8.132;2023-05-21T04:26:29;98089.47;;;12.65;100.00
59106;BME280;44891;50.204;8.132;2023-05-21T04:30:33;98100.31;;;12.74;100.00
59106;BME280;44891;50.204;8.132;2023-05-21T04:34:37;98097.94;;;12.72;100.00
59106;BME280;44891;50.204;8.132;2023-05-21T04:38:40;98103.06;;;12.89;99.40
59106;BME280;44891;50.204;8.132;2023-05-21T04:42:42;98101.00;;;12.96;99.12
59106;BME280;44891;50.204;8.132;2023-05-21T04:46:45;98106.59;;;13.10;98.25
59106;BME280;44891;50.204;8.132;2023-05-21T04:50:48;98104.00;;;13.20;96.58
59106;BME280;44891;50.204;8.132;2023-05-21T04:54:51;98107.41;;;13.16;97.47
59106;BME280;44891;50.204;8.132;2023-05-21T04:58:54;98104.84;;;13.21;97.60
59106;BME280;44891;50.204;8.132;2023-05-21T05:02:58;98113.03;;;13.29;97.27
59106;BME280;44891;50.204;8.132;2023-05-21T05:07:00;98107.78;;;13.40;97.05
59106;BME280;44891;50.204;8.132;2023-05-21T05:11:04;98104.13;;;13.41;97.66
59106;BME280;44891;50.204;8.132;2023-05-21T05:15:06;98099.91;;;13.50;97.64
59106;BME280;44891;50.204;8.132;2023-05-21T05:19:09;98097.81;;;13.57;96.80
59106;BME280;44891;50.204;8.132;2023-05-21T05:23:10;98106.06;;;13.76;96.36
59106;BME280;44891;50.204;8.132;2023-05-21T05:27:14;98099.47;;;13.88;96.66
59106;BME280;44891;50.204;8.132;2023-05-21T05:31:17;98105.81;;;13.93;96.58
59106;BME280;44891;50.204;8.132;2023-05-21T05:35:19;98096.59;;;14.10;96.41
59106;BME280;44891;50.204;8.132;2023-05-21T05:39:21;98101.34;;;14.24;95.07
59106;BME280;44891;50.204;8.132;2023-05-21T05:43:25;98094.50;;;14.33;95.08
59106;BME280;44891;50.204;8.132;2023-05-21T05:47:27;98098.69;;;14.44;94.88
59106;BME280;44891;50.204;8.132;2023-05-21T05:51:29;98100.03;;;14.62;93.97
59106;BME280;44891;50.204;8.132;2023-05-21T05:55:31;98103.19;;;14.79;93.40
59106;BME280;44891;50.204;8.132;2023-05-21T05:59:34;98097.88;;;14.84;92.49
59106;BME280;44891;50.204;8.132;2023-05-21T06:03:36;98095.50;;;14.93;91.64
59106;BME280;44891;50.204;8.132;2023-05-21T06:07:48;98095.19;;;15.00;91.54
59106;BME280;44891;50.204;8.132;2023-05-21T06:11:50;98097.53;;;15.11;90.70
59106;BME280;44891;50.204;8.132;2023-05-21T06:15:53;98100.66;;;15.18;90.41
59106;BME280;44891;50.204;8.132;2023-05-21T06:19:55;98103.28;;;15.29;89.50
59106;BME280;44891;50.204;8.132;2023-05-21T06:23:58;98100.34;;;15.40;89.21
59106;BME280;44891;50.204;8.132;2023-05-21T06:28:02;98095.78;;;15.51;88.96
59106;BME280;44891;50.204;8.132;2023-05-21T06:32:07;98096.53;;;15.67;88.21
59106;BME280;44891;50.204;8.132;2023-05-21T06:36:09;98093.47;;;15.89;87.77
59106;BME280;44891;50.204;8.132;2023-05-21T06:40:11;98097.84;;;16.03;86.40
59106;BME280;44891;50.204;8.132;2023-05-21T06:44:14;98097.22;;;16.17;85.82
59106;BME280;44891;50.204;8.132;2023-05-21T06:48:36;98105.88;;;16.33;85.34
59106;BME280;44891;50.204;8.132;2023-05-21T06:52:38;98100.25;;;16.39;85.33
59106;BME280;44891;50.204;8.132;2023-05-21T06:56:40;98099.41;;;16.44;83.96
59106;BME280;44891;50.204;8.132;2023-05-21T07:00:43;98102.44;;;16.61;83.66
59106;BME280;44891;50.204;8.132;2023-05-21T07:04:46;98071.84;;;16.45;83.50
59106;BME280;44891;50.204;8.132;2023-05-21T07:08:48;98102.25;;;16.81;82.64
59106;BME280;44891;50.204;8.132;2023-05-21T07:12:50;98102.38;;;16.95;81.15
59106;BME280;44891;50.204;8.132;2023-05-21T07:16:52;98104.13;;;17.05;80.18
59106;BME280;44891;50.204;8.132;2023-05-21T07:20:55;98097.06;;;17.19;80.28
59106;BME280;44891;50.204;8.132;2023-05-21T07:24:58;98101.34;;;17.39;79.88
59106;BME280;44891;50.204;8.132;2023-05-21T07:29:00;98101.81;;;17.65;78.99
59106;BME280;44891;50.204;8.132;2023-05-21T07:33:03;98103.41;;;17.85;77.94
59106;BME280;44891;50.204;8.132;2023-05-21T07:37:06;98090.53;;;18.11;76.25
59106;BME280;44891;50.204;8.132;2023-05-21T07:41:08;98093.03;;;18.21;75.78
59106;BME280;44891;50.204;8.132;2023-05-21T07:45:10;98087.34;;;18.28;76.50
59106;BME280;44891;50.204;8.132;2023-05-21T07:49:15;98081.25;;;18.41;76.01
59106;BME280;44891;50.204;8.132;2023-05-21T07:53:20;98085.72;;;18.45;75.17
59106;BME280;44891;50.204;8.132;2023-05-21T07:57:23;98078.75;;;18.50;75.08
59106;BME280;44891;50.204;8.132;2023-05-21T08:01:31;98079.41;;;18.55;74.65
59106;BME280;44891;50.204;8.132;2023-05-21T08:05:34;98086.75;;;18.63;75.00
59106;BME280;44891;50.204;8.132;2023-05-21T08:09:37;98078.19;;;18.66;75.04
59106;BME280;44891;50.204;8.132;2023-05-21T08:13:39;98087.47;;;18.69;74.29
59106;BME280;44891;50.204;8.132;2023-05-21T08:17:44;98072.78;;;18.71;75.18
59106;BME280;44891;50.204;8.132;2023-05-21T08:21:46;98076.59;;;18.65;74.61
59106;BME280;44891;50.204;8.132;2023-05-21T08:25:50;98075.16;;;18.73;74.41
59106;BME280;44891;50.204;8.132;2023-05-21T08:29:53;98076.72;;;18.74;75.32
59106;BME280;44891;50.204;8.132;2023-05-21T08:33:55;98076.25;;;18.86;74.12
59106;BME280;44891;50.204;8.132;2023-05-21T08:38:08;98070.63;;;18.87;73.90
59106;BME280;44891;50.204;8.132;2023-05-21T08:42:43;98078.91;;;18.99;73.99
59106;BME280;44891;50.204;8.132;2023-05-21T08:46:50;98073.66;;;19.08;73.72
59106;BME280;44891;50.204;8.132;2023-05-21T08:50:53;98073.56;;;19.27;73.23
59106;BME280;44891;50.204;8.132;2023-05-21T08:55:06;98067.72;;;19.39;72.77
59106;BME280;44891;50.204;8.132;2023-05-21T08:59:09;98066.22;;;19.60;72.61
59106;BME280;44891;50.204;8.132;2023-05-21T09:03:12;98070.91;;;19.77;72.46
59106;BME280;44891;50.204;8.132;2023-05-21T09:07:16;98064.66;;;19.95;71.97
59106;BME280;44891;50.204;8.132;2023-05-21T09:11:38;98050.81;;;20.16;70.08
59106;BME280;44891;50.204;8.132;2023-05-21T09:15:45;98058.09;;;20.24;71.21
59106;BME280;44891;50.204;8.132;2023-05-21T09:20:05;98066.19;;;20.41;70.08
59106;BME280;44891;50.204;8.132;2023-05-21T09:24:10;98063.03;;;20.61;68.70
59106;BME280;44891;50.204;8.132;2023-05-21T09:28:12;98066.03;;;20.69;68.45
59106;BME280;44891;50.204;8.132;2023-05-21T09:32:17;98064.25;;;20.95;68.40
59106;BME280;44891;50.204;8.132;2023-05-21T09:36:19;98058.34;;;21.07;67.38
59106;BME280;44891;50.204;8.132;2023-05-21T09:40:22;98051.06;;;20.99;67.03
59106;BME280;44891;50.204;8.132;2023-05-21T09:44:24;98054.06;;;21.06;68.63
59106;BME280;44891;50.204;8.132;2023-05-21T09:48:35;98051.19;;;21.33;67.65
59106;BME280;44891;50.204;8.132;2023-05-21T09:52:38;98045.53;;;21.52;66.45
59106;BME280;44891;50.204;8.132;2023-05-21T09:56:40;98020.09;;;21.46;66.86
59106;BME280;44891;50.204;8.132;2023-05-21T10:00:43;98036.91;;;21.81;65.54
59106;BME280;44891;50.204;8.132;2023-05-21T10:04:47;98041.00;;;21.87;64.02
59106;BME280;44891;50.204;8.132;2023-05-21T10:08:50;98039.25;;;21.83;65.02
59106;BME280;44891;50.204;8.132;2023-05-21T10:12:53;98036.56;;;21.83;64.67
59106;BME280;44891;50.204;8.132;2023-05-21T10:16:56;98037.34;;;21.92;64.29
59106;BME280;44891;50.204;8.132;2023-05-21T10:20:59;98032.19;;;21.87;64.31
59106;BME280;44891;50.204;8.132;2023-05-21T10:25:01;98022.28;;;21.87;64.34
59106;BME280;44891;50.204;8.132;2023-05-21T10:29:05;98021.94;;;21.89;64.57
59106;BME280;44891;50.204;8.132;2023-05-21T10:33:08;98021.16;;;22.06;64.97
59106;BME280;44891;50.204;8.132;2023-05-21T10:37:12;98011.22;;;22.06;63.66
59106;BME280;44891;50.204;8.132;2023-05-21T10:41:14;98013.44;;;22.21;63.67
59106;BME280;44891;50.204;8.132;2023-05-21T10:45:19;98014.66;;;22.24;64.41
59106;BME280;44891;50.204;8.132;2023-05-21T10:49:37;98016.13;;;22.60;64.45
59106;BME280;44891;50.204;8.132;2023-05-21T10:53:53;98012.56;;;22.85;61.58
59106;BME280;44891;50.204;8.132;2023-05-21T10:58:16;98004.81;;;22.84;61.27
59106;BME280;44891;50.204;8.132;2023-05-21T11:02:24;98004.03;;;22.83;60.69
59106;BME280;44891;50.204;8.132;2023-05-21T11:06:26;97999.75;;;22.99;61.23
59106;BME280;44891;50.204;8.132;2023-05-21T11:10:30;97998.03;;;23.16;61.33
59106;BME280;44891;50.204;8.132;2023-05-21T11:14:33;97996.63;;;23.18;59.62
59106;BME280;44891;50.204;8.132;2023-05-21T11:22:56;97990.00;;;23.37;58.84
59106;BME280;44891;50.204;8.132;2023-05-21T11:27:00;97980.88;;;23.58;58.13
59106;BME280;44891;50.204;8.132;2023-05-21T11:31:21;97976.97;;;23.89;56.86
59106;BME280;44891;50.204;8.132;2023-05-21T11:35:24;97975.41;;;24.33;56.75
59106;BME280;44891;50.204;8.132;2023-05-21T11:39:27;97971.16;;;24.69;55.34
59106;BME280;44891;50.204;8.132;2023-05-21T11:43:30;97967.91;;;25.00;55.58
59106;BME280;44891;50.204;8.132;2023-05-21T11:47:32;97962.59;;;25.28;53.94
59106;BME280;44891;50.204;8.132;2023-05-21T11:51:34;97953.91;;;25.75;51.59
59106;BME280;44891;50.204;8.132;2023-05-21T11:55:36;97947.88;;;25.94;52.51
59106;BME280;44891;50.204;8.132;2023-05-21T11:59:41;97961.19;;;26.34;52.81
59106;BME280;44891;50.204;8.132;2023-05-21T12:03:43;97946.03;;;26.42;50.11
59106;BME280;44891;50.204;8.132;2023-05-21T12:07:45;97957.97;;;25.97;51.87
59106;BME280;44891;50.204;8.132;2023-05-21T12:11:48;97961.63;;;26.20;50.89
59106;BME280;44891;50.204;8.132;2023-05-21T12:15:52;97969.56;;;25.85;51.82
59106;BME280;44891;50.204;8.132;2023-05-21T12:19:54;97948.88;;;25.45;47.47
59106;BME280;44891;50.204;8.132;2023-05-21T12:23:56;97960.00;;;25.32;47.45
59106;BME280;44891;50.204;8.132;2023-05-21T12:27:58;97962.00;;;25.75;46.77
59106;BME280;44891;50.204;8.132;2023-05-21T12:32:02;97949.66;;;26.18;45.81
59106;BME280;44891;50.204;8.132;2023-05-21T12:36:06;97953.97;;;25.91;46.21
59106;BME280;44891;50.204;8.132;2023-05-21T12:40:08;97954.84;;;26.11;45.36
59106;BME280;44891;50.204;8.132;2023-05-21T12:44:11;97941.13;;;26.63;45.16
59106;BME280;44891;50.204;8.132;2023-05-21T12:48:14;97933.31;;;26.93;45.02
59106;BME280;44891;50.204;8.132;2023-05-21T12:52:17;97938.88;;;26.34;45.45
59106;BME280;44891;50.204;8.132;2023-05-21T12:56:19;97944.50;;;25.97;46.70
59106;BME280;44891;50.204;8.132;2023-05-21T13:00:22;97949.34;;;25.75;46.91
59106;BME280;44891;50.204;8.132;2023-05-21T13:04:25;97941.66;;;25.90;42.75
59106;BME280;44891;50.204;8.132;2023-05-21T13:08:27;97942.28;;;25.43;43.50
59106;BME280;44891;50.204;8.132;2023-05-21T13:12:30;97943.63;;;25.77;44.26
59106;BME280;44891;50.204;8.132;2023-05-21T13:16:32;97929.75;;;26.54;43.75
59106;BME280;44891;50.204;8.132;2023-05-21T13:20:35;97931.28;;;26.71;41.93
59106;BME280;44891;50.204;8.132;2023-05-21T13:24:37;97923.72;;;27.12;41.87
59106;BME280;44891;50.204;8.132;2023-05-21T13:28:39;97930.66;;;27.13;41.21
59106;BME280;44891;50.204;8.132;2023-05-21T13:32:41;97922.84;;;27.46;39.91
59106;BME280;44891;50.204;8.132;2023-05-21T13:36:44;97917.31;;;27.58;40.39
59106;BME280;44891;50.204;8.132;2023-05-21T13:40:46;97915.06;;;27.41;38.69
59106;BME280;44891;50.204;8.132;2023-05-21T13:44:49;97917.31;;;27.39;38.27
59106;BME280;44891;50.204;8.132;2023-05-21T13:48:51;97913.91;;;27.81;38.63
59106;BME280;44891;50.204;8.132;2023-05-21T13:52:54;97903.03;;;28.23;37.00
59106;BME280;44891;50.204;8.132;2023-05-21T13:56:55;97907.13;;;28.13;37.10
59106;BME280;44891;50.204;8.132;2023-05-21T14:00:57;97906.03;;;27.72;37.55
59106;BME280;44891;50.204;8.132;2023-05-21T14:04:59;97911.91;;;28.24;37.78
59106;BME280;44891;50.204;8.132;2023-05-21T14:09:02;97909.47;;;28.15;37.91
59106;BME280;44891;50.204;8.132;2023-05-21T14:13:04;97902.63;;;28.21;37.09
59106;BME280;44891;50.204;8.132;2023-05-21T14:17:06;97912.97;;;28.19;38.40
59106;BME280;44891;50.204;8.132;2023-05-21T14:21:08;97910.47;;;27.84;37.96
59106;BME280;44891;50.204;8.132;2023-05-21T14:25:11;97906.53;;;27.39;38.94
59106;BME280;44891;50.204;8.132;2023-05-21T14:29:12;97913.66;;;27.08;39.17
59106;BME280;44891;50.204;8.132;2023-05-21T14:33:15;97902.19;;;26.96;39.42
59106;BME280;44891;50.204;8.132;2023-05-21T14:37:16;97902.72;;;27.01;39.35
59106;BME280;44891;50.204;8.132;2023-05-21T14:41:22;97905.25;;;26.94;39.72
59106;BME280;44891;50.204;8.132;2023-05-21T14:45:24;97910.81;;;26.86;40.08
59106;BME280;44891;50.204;8.132;2023-05-21T14:49:26;97914.25;;;26.82;39.43
59106;BME280;44891;50.204;8.132;2023-05-21T14:53:27;97911.78;;;26.58;39.63
59106;BME280;44891;50.204;8.132;2023-05-21T14:57:31;97904.31;;;26.36;40.05
59106;BME280;44891;50.204;8.132;2023-05-21T15:01:32;97894.47;;;26.94;39.79
59106;BME280;44891;50.204;8.132;2023-05-21T15:05:34;97897.41;;;27.24;39.08
59106;BME280;44891;50.204;8.132;2023-05-21T15:09:36;97898.97;;;26.71;38.76
59106;BME280;44891;50.204;8.132;2023-05-21T15:13:39;97898.94;;;26.36;39.22
59106;BME280;44891;50.204;8.132;2023-05-21T15:17:41;97893.38;;;26.44;40.03
59106;BME280;44891;50.204;8.132;2023-05-21T15:21:43;97890.84;;;26.51;39.44
59106;BME280;44891;50.204;8.132;2023-05-21T15:25:45;97894.44;;;27.10;39.13
59106;BME280;44891;50.204;8.132;2023-05-21T15:29:48;97889.59;;;27.38;38.24
59106;BME280;44891;50.204;8.132;2023-05-21T15:33:50;97882.94;;;27.13;38.73
59106;BME280;44891;50.204;8.132;2023-05-21T15:37:52;97891.16;;;26.66;38.43
59106;BME280;44891;50.204;8.132;2023-05-21T15:41:54;97883.31;;;26.10;40.59
59106;BME280;44891;50.204;8.132;2023-05-21T15:45:57;97873.41;;;26.29;39.91
59106;BME280;44891;50.204;8.132;2023-05-21T15:49:59;97877.03;;;26.37;38.04
59106;BME280;44891;50.204;8.132;2023-05-21T15:54:01;97875.03;;;26.34;38.57
59106;BME280;44891;50.204;8.132;2023-05-21T15:58:02;97872.56;;;26.41;38.73
59106;BME280;44891;50.204;8.132;2023-05-21T16:02:06;97870.69;;;26.45;39.38
59106;BME280;44891;50.204;8.132;2023-05-21T16:06:07;97876.88;;;26.46;37.86
59106;BME280;44891;50.204;8.132;2023-05-21T16:10:09;97875.25;;;26.41;38.36
59106;BME280;44891;50.204;8.132;2023-05-21T16:14:11;97868.38;;;26.44;37.91
59106;BME280;44891;50.204;8.132;2023-05-21T16:18:14;97875.56;;;26.40;36.92
59106;BME280;44891;50.204;8.132;2023-05-21T16:22:16;97878.00;;;26.45;38.53
59106;BME280;44891;50.204;8.132;2023-05-21T16:26:19;97880.34;;;26.46;38.46
59106;BME280;44891;50.204;8.132;2023-05-21T16:30:21;97870.44;;;26.35;38.34
59106;BME280;44891;50.204;8.132;2023-05-21T16:34:24;97867.41;;;26.36;38.70
59106;BME280;44891;50.204;8.132;2023-05-21T16:38:26;97869.63;;;26.34;38.73
59106;BME280;44891;50.204;8.132;2023-05-21T16:42:28;97873.75;;;26.44;40.05
59106;BME280;44891;50.204;8.132;2023-05-21T16:46:30;97866.34;;;26.56;39.22
59106;BME280;44891;50.204;8.132;2023-05-21T16:50:33;97880.50;;;26.53;39.02
59106;BME280;44891;50.204;8.132;2023-05-21T16:54:35;97874.41;;;26.56;39.05
59106;BME280;44891;50.204;8.132;2023-05-21T16:58:36;97878.25;;;26.55;39.35
59106;BME280;44891;50.204;8.132;2023-05-21T17:02:38;97877.47;;;26.55;40.08
59106;BME280;44891;50.204;8.132;2023-05-21T17:06:41;97876.88;;;26.46;39.26
59106;BME280;44891;50.204;8.132;2023-05-21T17:10:43;97884.53;;;26.28;40.33
59106;BME280;44891;50.204;8.132;2023-05-21T17:14:45;97881.31;;;26.07;39.49
59106;BME280;44891;50.204;8.132;2023-05-21T17:18:47;97892.94;;;25.79;39.97
59106;BME280;44891;50.204;8.132;2023-05-21T17:22:50;97856.09;;;25.52;40.12
59106;BME280;44891;50.204;8.132;2023-05-21T17:26:52;97886.56;;;25.71;41.30
59106;BME280;44891;50.204;8.132;2023-05-21T17:30:54;97892.88;;;25.63;40.86
59106;BME280;44891;50.204;8.132;2023-05-21T17:34:56;97893.13;;;25.58;41.72
59106;BME280;44891;50.204;8.132;2023-05-21T17:38:59;97898.22;;;25.47;42.32
59106;BME280;44891;50.204;8.132;2023-05-21T17:43:01;97894.03;;;25.34;42.32
59106;BME280;44891;50.204;8.132;2023-05-21T17:47:04;97900.13;;;25.19;43.48
59106;BME280;44891;50.204;8.132;2023-05-21T17:51:05;97901.66;;;25.04;42.88
59106;BME280;44891;50.204;8.132;2023-05-21T17:55:09;97899.63;;;24.89;43.97
59106;BME280;44891;50.204;8.132;2023-05-21T17:59:10;97894.31;;;24.77;44.91
59106;BME280;44891;50.204;8.132;2023-05-21T18:03:12;97903.81;;;24.62;46.62
59106;BME280;44891;50.204;8.132;2023-05-21T18:07:14;97894.69;;;24.51;48.23
59106;BME280;44891;50.204;8.132;2023-05-21T18:11:18;97900.91;;;24.30;49.19
59106;BME280;44891;50.204;8.132;2023-05-21T18:15:21;97894.84;;;24.09;50.74
59106;BME280;44891;50.204;8.132;2023-05-21T18:19:22;97896.94;;;23.79;52.70
59106;BME280;44891;50.204;8.132;2023-05-21T18:23:24;97899.03;;;23.61;53.46
59106;BME280;44891;50.204;8.132;2023-05-21T18:27:28;97906.78;;;23.21;55.31
59106;BME280;44891;50.204;8.132;2023-05-21T18:31:29;97905.41;;;22.94;55.50
59106;BME280;44891;50.204;8.132;2023-05-21T18:35:31;97905.69;;;22.71;57.34
59106;BME280;44891;50.204;8.132;2023-05-21T18:39:33;97907.72;;;22.45;59.21
59106;BME280;44891;50.204;8.132;2023-05-21T18:43:36;97898.56;;;22.16;61.19
59106;BME280;44891;50.204;8.132;2023-05-21T18:47:38;97907.09;;;22.01;63.18
59106;BME280;44891;50.204;8.132;2023-05-21T18:51:42;97910.94;;;21.83;64.00
59106;BME280;44891;50.204;8.132;2023-05-21T18:55:44;97902.81;;;21.62;64.85
59106;BME280;44891;50.204;8.132;2023-05-21T18:59:47;97904.44;;;21.28;66.34
59106;BME280;44891;50.204;8.132;2023-05-21T19:03:48;97912.88;;;21.22;67.57
59106;BME280;44891;50.204;8.132;2023-05-21T19:07:50;97920.72;;;21.18;66.74
59106;BME280;44891;50.204;8.132;2023-05-21T19:11:52;97913.50;;;21.10;67.54
59106;BME280;44891;50.204;8.132;2023-05-21T19:15:55;97923.19;;;20.80;68.01
59106;BME280;44891;50.204;8.132;2023-05-21T19:19:58;97920.09;;;20.38;68.64
59106;BME280;44891;50.204;8.132;2023-05-21T19:23:59;97928.97;;;20.16;71.09
59106;BME280;44891;50.204;8.132;2023-05-21T19:28:01;97926.53;;;20.06;70.85
59106;BME280;44891;50.204;8.132;2023-05-21T19:32:05;97934.84;;;19.73;72.52
59106;BME280;44891;50.204;8.132;2023-05-21T19:36:07;97927.06;;;19.41;73.88
59106;BME280;44891;50.204;8.132;2023-05-21T19:40:09;97935.25;;;19.22;75.15
59106;BME280;44891;50.204;8.132;2023-05-21T19:44:11;97949.03;;;19.24;74.96
59106;BME280;44891;50.204;8.132;2023-05-21T19:48:14;97940.38;;;19.18;75.26
59106;BME280;44891;50.204;8.132;2023-05-21T19:52:16;97943.34;;;19.17;74.78
59106;BME280;44891;50.204;8.132;2023-05-21T19:56:18;97949.28;;;19.00;76.23
59106;BME280;44891;50.204;8.132;2023-05-21T20:00:21;97942.72;;;18.84;76.89
59106;BME280;44891;50.204;8.132;2023-05-21T20:04:24;97947.16;;;18.74;76.92
59106;BME280;44891;50.204;8.132;2023-05-21T20:08:26;97948.22;;;18.60;77.91
59106;BME280;44891;50.204;8.132;2023-05-21T20:12:28;97946.75;;;18.54;76.91
59106;BME280;44891;50.204;8.132;2023-05-21T20:16:29;97952.28;;;18.43;77.13
59106;BME280;44891;50.204;8.132;2023-05-21T20:20:33;97959.91;;;18.04;79.56
59106;BME280;44891;50.204;8.132;2023-05-21T20:24:37;97969.47;;;17.72;81.01
59106;BME280;44891;50.204;8.132;2023-05-21T20:28:39;97962.59;;;17.33;83.59
59106;BME280;44891;50.204;8.132;2023-05-21T20:32:40;97964.88;;;17.40;83.25
59106;BME280;44891;50.204;8.132;2023-05-21T20:36:43;97971.69;;;17.46;83.21
59106;BME280;44891;50.204;8.132;2023-05-21T20:40:46;97966.97;;;17.43;83.40
59106;BME280;44891;50.204;8.132;2023-05-21T20:44:48;97969.38;;;17.58;82.61
59106;BME280;44891;50.204;8.132;2023-05-21T20:48:52;97966.28;;;17.70;82.22
59106;BME280;44891;50.204;8.132;2023-05-21T20:52:55;97970.38;;;17.62;82.32
59106;BME280;44891;50.204;8.132;2023-05-21T20:56:57;97965.16;;;17.57;81.79
59106;BME280;44891;50.204;8.132;2023-05-21T21:00:59;97971.03;;;17.35;82.98
59106;BME280;44891;50.204;8.132;2023-05-21T21:05:01;97966.19;;;17.05;84.96
59106;BME280;44891;50.204;8.132;2023-05-21T21:09:04;97969.47;;;17.16;85.02
59106;BME280;44891;50.204;8.132;2023-05-21T21:13:07;97966.88;;;17.29;84.49
59106;BME280;44891;50.204;8.132;2023-05-21T21:17:09;97971.41;;;17.29;84.19
59106;BME280;44891;50.204;8.132;2023-05-21T21:21:10;97972.28;;;17.05;84.98
59106;BME280;44891;50.204;8.132;2023-05-21T21:25:14;97973.22;;;16.72;87.49
59106;BME280;44891;50.204;8.132;2023-05-21T21:29:15;97980.97;;;16.63;88.72
59106;BME280;44891;50.204;8.132;2023-05-21T21:33:17;97971.44;;;16.62;88.76